Time;durP1;ratioP1;P1;durP2;ratioP2;P2;SDS_P1;SDS_P2;PMS_P1;PMS_P2;Temp;Humidity;BMP_temperature;BMP_pressure;BME280_temperature;BME280_humidity;BME280_pressure;Samples;Min_cycle;Max_cycle;Signal;HPM_P1;HPM_P2
2022/06/02 00:00:08;;;;;;;10.30;9.30;;;11.80;99.90;;;;;;5064181;28;20198;-76
2022/06/02 00:03:03;;;;;;;9.13;8.30;;;11.70;99.90;;;;;;5073406;28;20209;-76
2022/06/02 00:05:52;;;;;;;10.15;8.95;;;11.80;99.90;;;;;;5065203;28;20198;-76
2022/06/02 00:08:31;;;;;;;9.30;8.35;;;11.80;99.90;;;;;;5089943;28;20201;-76
2022/06/02 00:11:10;;;;;;;8.10;7.30;;;11.80;99.90;;;;;;5070971;28;20743;-76
2022/06/02 00:13:42;;;;;;;9.57;8.20;;;11.70;99.90;;;;;;5070161;28;20204;-76
2022/06/02 00:16:14;;;;;;;8.95;7.82;;;11.70;99.90;;;;;;5095497;28;20202;-76
2022/06/02 00:18:49;;;;;;;9.50;8.10;;;11.60;99.90;;;;;;5067797;28;20562;-76
2022/06/02 00:21:28;;;;;;;8.82;8.00;;;11.70;99.90;;;;;;5064481;28;20225;-76
2022/06/02 00:24:03;;;;;;;9.30;8.30;;;11.70;99.90;;;;;;5067847;28;20213;-76
2022/06/02 00:26:51;;;;;;;8.48;7.68;;;11.70;99.90;;;;;;5062798;28;20220;-76
2022/06/02 00:29:30;;;;;;;7.88;7.15;;;11.60;99.90;;;;;;5082351;28;20213;-76
2022/06/02 00:32:05;;;;;;;9.45;8.65;;;11.40;99.90;;;;;;5084082;28;20700;-76
2022/06/02 00:34:40;;;;;;;8.75;7.95;;;11.20;99.90;;;;;;5083279;28;20200;-76
2022/06/02 00:37:24;;;;;;;9.45;8.63;;;11.30;99.90;;;;;;5080687;28;20206;-76
2022/06/02 00:39:53;;;;;;;9.73;8.73;;;11.40;99.90;;;;;;5070995;28;20562;-76
2022/06/02 00:42:48;;;;;;;9.37;8.43;;;11.30;99.90;;;;;;5071743;28;20221;-75
2022/06/02 00:45:19;;;;;;;10.10;9.03;;;11.10;99.90;;;;;;5071529;28;20193;-75
2022/06/02 00:47:52;;;;;;;10.10;8.43;;;11.00;99.90;;;;;;5070258;28;20202;-75
2022/06/02 00:50:42;;;;;;;8.93;8.13;;;11.10;99.90;;;;;;5070716;28;20671;-75
2022/06/02 00:53:18;;;;;;;9.43;8.38;;;11.10;99.90;;;;;;5066756;28;20220;-75
2022/06/02 00:59:00;;;;;;;9.23;8.33;;;10.80;99.90;;;;;;5072617;28;20177;-75
2022/06/02 01:04:54;;;;;;;10.20;9.23;;;10.70;99.90;;;;;;5063191;28;20205;-75
2022/06/02 01:07:36;;;;;;;11.83;9.83;;;10.80;99.90;;;;;;5069590;28;20197;-75
2022/06/02 01:10:26;;;;;;;10.33;9.27;;;10.70;99.90;;;;;;5061564;28;20212;-75
2022/06/02 01:13:11;;;;;;;10.27;9.20;;;10.70;99.90;;;;;;5065506;28;20202;-75
2022/06/02 01:15:49;;;;;;;10.27;8.93;;;10.80;99.90;;;;;;5067925;28;20255;-75
2022/06/02 01:18:25;;;;;;;9.77;8.83;;;10.60;99.90;;;;;;5065888;28;20209;-75
2022/06/02 01:21:06;;;;;;;8.97;8.07;;;10.40;99.90;;;;;;5060270;28;20213;-76
2022/06/02 01:23:56;;;;;;;10.57;9.47;;;10.60;99.90;;;;;;5064011;28;20209;-76
2022/06/02 01:26:48;;;;;;;10.50;9.40;;;10.80;99.90;;;;;;5066955;28;20209;-76
2022/06/02 01:29:36;;;;;;;10.50;9.50;;;10.90;99.90;;;;;;5099318;28;20672;-76
2022/06/02 01:32:08;;;;;;;11.67;10.57;;;11.00;99.90;;;;;;5081521;28;20233;-76
2022/06/02 01:34:50;;;;;;;11.90;10.63;;;11.10;99.90;;;;;;5065692;28;20190;-76
2022/06/02 01:37:26;;;;;;;10.70;9.60;;;11.10;99.90;;;;;;5068589;28;20197;-76
2022/06/02 01:40:11;;;;;;;13.37;11.97;;;11.10;99.90;;;;;;5058441;28;20198;-76
2022/06/02 01:42:51;;;;;;;15.50;13.83;;;11.10;99.90;;;;;;5062361;28;20208;-76
2022/06/02 01:45:29;;;;;;;18.13;15.37;;;11.10;99.90;;;;;;5070423;28;20568;-76
2022/06/02 01:48:06;;;;;;;16.50;14.90;;;10.90;99.90;;;;;;5066979;28;20581;-76
2022/06/02 01:50:40;;;;;;;13.32;11.90;;;11.00;99.90;;;;;;5069558;28;20228;-76
2022/06/02 01:53:16;;;;;;;13.47;12.07;;;10.90;99.90;;;;;;5078500;28;20202;-76
2022/06/02 01:56:06;;;;;;;15.47;13.87;;;10.90;99.90;;;;;;5068330;28;20194;-76
2022/06/02 01:58:47;;;;;;;15.57;13.97;;;11.00;99.90;;;;;;5064418;28;20209;-77
2022/06/02 02:01:22;;;;;;;16.83;14.60;;;11.10;99.90;;;;;;5097519;28;20288;-76
2022/06/02 02:04:04;;;;;;;15.27;13.77;;;11.20;99.90;;;;;;5068482;28;20663;-76
2022/06/02 02:06:39;;;;;;;15.97;14.37;;;11.20;99.90;;;;;;5059353;28;20220;-76
2022/06/02 02:09:12;;;;;;;16.57;14.77;;;11.00;99.90;;;;;;5058847;28;20213;-76
2022/06/02 02:11:59;;;;;;;16.50;14.93;;;10.90;99.90;;;;;;5068322;28;20221;-76
2022/06/02 02:14:44;;;;;;;14.63;13.03;;;10.80;99.90;;;;;;5064913;28;20205;-76
2022/06/02 02:17:36;;;;;;;15.87;14.37;;;10.70;99.90;;;;;;5065727;28;20204;-76
2022/06/02 02:20:33;;;;;;;14.10;12.70;;;10.60;99.90;;;;;;5061969;28;20197;-77
2022/06/02 02:23:10;;;;;;;13.20;11.93;;;10.50;99.90;;;;;;5076550;28;20698;-77
2022/06/02 02:25:43;;;;;;;13.07;11.87;;;10.20;99.90;;;;;;5061912;28;20197;-77
2022/06/02 02:28:22;;;;;;;12.73;11.53;;;10.30;99.90;;;;;;5063225;28;20198;-76
2022/06/02 02:31:01;;;;;;;13.03;11.70;;;10.30;99.90;;;;;;5064590;28;20687;-76
2022/06/02 02:33:38;;;;;;;12.27;10.77;;;10.30;99.90;;;;;;5061401;28;20197;-76
2022/06/02 02:36:13;;;;;;;12.50;11.20;;;10.20;99.90;;;;;;5064337;28;20242;-76
2022/06/02 02:38:49;;;;;;;12.83;11.50;;;10.30;99.90;;;;;;5068950;28;20193;-76
2022/06/02 02:41:31;;;;;;;14.33;12.87;;;10.30;99.90;;;;;;5100892;28;20741;-76
2022/06/02 02:44:05;;;;;;;16.70;14.13;;;10.00;99.90;;;;;;5067365;28;20198;-76
2022/06/02 02:46:38;;;;;;;15.87;14.17;;;10.00;99.90;;;;;;5061122;28;20197;-76
2022/06/02 02:49:13;;;;;;;15.67;14.17;;;9.80;99.90;;;;;;5063172;28;20197;-76
2022/06/02 02:51:51;;;;;;;17.03;15.23;;;9.70;99.90;;;;;;5070372;28;20233;-77
2022/06/02 02:54:25;;;;;;;16.00;14.50;;;9.70;99.90;;;;;;5089995;28;20215;-77
2022/06/02 02:56:58;;;;;;;19.50;15.80;;;9.50;99.90;;;;;;5072757;28;20201;-76
2022/06/02 02:59:40;;;;;;;17.07;15.33;;;9.70;99.90;;;;;;5072212;28;20697;-75
2022/06/02 03:02:16;;;;;;;17.13;15.33;;;9.70;99.90;;;;;;5083852;28;20233;-75
2022/06/02 03:04:52;;;;;;;16.97;15.17;;;9.80;99.90;;;;;;5075041;28;20193;-75
2022/06/02 03:07:21;;;;;;;17.50;15.10;;;9.80;99.90;;;;;;5073408;28;20197;-77
2022/06/02 03:10:01;;;;;;;18.07;15.63;;;9.90;99.90;;;;;;5068978;28;20217;-77
2022/06/02 03:12:41;;;;;;;17.13;15.33;;;9.80;99.90;;;;;;5063599;28;20220;-76
2022/06/02 03:15:18;;;;;;;17.67;15.87;;;9.70;99.90;;;;;;5067112;28;20205;-76
2022/06/02 03:18:05;;;;;;;18.57;15.07;;;9.60;99.90;;;;;;5063128;28;20193;-76
2022/06/02 03:20:46;;;;;;;16.77;14.70;;;9.60;99.90;;;;;;5080184;28;20217;-76
2022/06/02 03:23:36;;;;;;;17.97;16.07;;;9.70;99.90;;;;;;5070520;28;20678;-77
2022/06/02 03:26:09;;;;;;;17.20;15.40;;;10.00;99.90;;;;;;5073458;28;20198;-76
2022/06/02 03:28:48;;;;;;;17.93;16.03;;;10.20;99.90;;;;;;5073628;28;20200;-76
2022/06/02 03:31:22;;;;;;;18.10;16.20;;;10.20;99.90;;;;;;5067059;28;20213;-76
2022/06/02 03:34:01;;;;;;;16.73;15.03;;;10.20;99.90;;;;;;5060592;28;20195;-76
2022/06/02 03:36:53;;;;;;;16.00;14.30;;;10.20;99.90;;;;;;5085539;28;20198;-76
2022/06/02 03:39:34;;;;;;;14.47;12.97;;;10.00;99.90;;;;;;5069565;28;20194;-76
2022/06/02 03:42:15;;;;;;;14.60;12.87;;;9.90;99.90;;;;;;5065317;28;20220;-76
2022/06/02 03:45:10;;;;;;;14.57;13.07;;;9.80;99.90;;;;;;5062780;28;20567;-76
2022/06/02 03:48:11;;;;;;;13.27;11.97;;;9.80;99.90;;;;;;5069919;28;20201;-76
2022/06/02 03:51:07;;;;;;;14.57;13.07;;;9.80;99.90;;;;;;5055862;28;20221;-76
2022/06/02 03:54:01;;;;;;;16.07;14.37;;;9.90;99.90;;;;;;5096225;28;20205;-76
2022/06/02 03:57:05;;;;;;;17.63;15.70;;;10.10;99.90;;;;;;5071399;28;20209;-76
2022/06/02 04:00:09;;;;;;;17.73;15.90;;;9.90;99.90;;;;;;5069606;28;20197;-76
2022/06/02 04:02:51;;;;;;;18.23;15.13;;;9.80;99.90;;;;;;5065487;28;20280;-76
2022/06/02 04:05:42;;;;;;;17.30;15.50;;;9.80;99.90;;;;;;5070991;28;20208;-76
2022/06/02 04:08:39;;;;;;;17.37;15.47;;;9.80;99.90;;;;;;5053899;28;20202;-76
2022/06/02 04:11:26;;;;;;;18.07;16.17;;;9.90;99.90;;;;;;5067877;28;20213;-76
2022/06/02 04:14:11;;;;;;;16.07;14.27;;;10.00;99.90;;;;;;5067507;28;20198;-76
2022/06/02 04:17:05;;;;;;;19.07;17.10;;;10.00;99.90;;;;;;5067573;28;20213;-76
2022/06/02 04:22:58;;;;;;;20.80;18.53;;;10.20;99.90;;;;;;5062609;28;20200;-76
2022/06/02 04:25:43;;;;;;;19.60;17.00;;;10.50;99.90;;;;;;5068231;28;20201;-76
2022/06/02 04:28:41;;;;;;;21.67;19.10;;;10.40;99.90;;;;;;5102237;28;20205;-76
2022/06/02 04:31:30;;;;;;;22.83;20.20;;;10.20;99.90;;;;;;5069680;28;20701;-76
2022/06/02 04:34:09;;;;;;;25.17;20.43;;;10.00;99.90;;;;;;5064718;28;20198;-76
2022/06/02 04:36:55;;;;;;;25.77;21.57;;;10.10;99.90;;;;;;5099847;28;20212;-76
2022/06/02 04:39:49;;;;;;;24.47;20.20;;;10.20;99.90;;;;;;5065988;28;20689;-76
2022/06/02 04:42:30;;;;;;;25.47;20.50;;;10.40;99.90;;;;;;5102509;28;20213;-76
2022/06/02 04:45:18;;;;;;;22.80;19.00;;;10.50;99.90;;;;;;5071272;28;20205;-76
2022/06/02 04:48:04;;;;;;;25.27;20.47;;;10.50;99.90;;;;;;5096300;28;20206;-76
2022/06/02 04:50:42;;;;;;;22.67;19.37;;;10.60;99.90;;;;;;5068064;28;20220;-76
2022/06/02 04:53:19;;;;;;;22.03;19.17;;;10.80;99.90;;;;;;5065967;28;20214;-76
2022/06/02 04:56:13;;;;;;;22.13;19.73;;;10.80;99.90;;;;;;5068855;28;20189;-76
2022/06/02 04:58:54;;;;;;;26.40;21.30;;;10.90;99.90;;;;;;5069680;28;20186;-76
2022/06/02 05:01:36;;;;;;;25.00;20.83;;;11.00;99.90;;;;;;5070013;28;20221;-76
2022/06/02 05:04:25;;;;;;;25.23;21.00;;;11.10;99.90;;;;;;5069924;28;20666;-76
2022/06/02 05:07:09;;;;;;;22.90;20.50;;;11.00;99.90;;;;;;5068194;28;20198;-76
2022/06/02 05:10:02;;;;;;;26.00;23.20;;;11.20;99.90;;;;;;5070601;28;20202;-76
2022/06/02 05:12:53;;;;;;;26.93;22.97;;;11.20;99.90;;;;;;5067776;28;20619;-76
2022/06/02 05:15:45;;;;;;;23.17;20.57;;;11.40;99.90;;;;;;5058054;28;20205;-76
2022/06/02 05:18:46;;;;;;;28.17;23.03;;;11.60;99.90;;;;;;5066751;28;20206;-76
2022/06/02 05:21:46;;;;;;;28.07;25.10;;;11.40;99.90;;;;;;5065105;28;20226;-76
2022/06/02 05:24:57;;;;;;;25.70;22.90;;;11.30;99.90;;;;;;5067935;28;20202;-76
2022/06/02 05:27:56;;;;;;;24.50;21.97;;;11.50;99.90;;;;;;5005589;28;20202;-76
2022/06/02 05:30:49;;;;;;;26.47;23.27;;;11.70;99.90;;;;;;5036382;28;20201;-75
2022/06/02 05:33:42;;;;;;;26.40;22.70;;;11.80;99.90;;;;;;5062788;28;20216;-76
2022/06/02 05:36:42;;;;;;;25.30;21.67;;;12.00;99.90;;;;;;5062204;28;20209;-76
2022/06/02 05:39:41;;;;;;;24.15;19.85;;;11.80;99.90;;;;;;5068491;28;20197;-76
2022/06/02 05:42:34;;;;;;;22.60;20.25;;;12.00;99.90;;;;;;5071557;28;20667;-78
2022/06/02 05:45:21;;;;;;;21.77;19.42;;;12.00;99.90;;;;;;5071292;28;20194;-76
2022/06/02 05:48:24;;;;;;;25.65;20.63;;;12.00;99.90;;;;;;5067789;28;20213;-76
2022/06/02 05:51:31;;;;;;;23.35;20.90;;;12.10;99.90;;;;;;5051244;28;20699;-76
2022/06/02 05:54:35;;;;;;;22.17;19.90;;;12.10;99.90;;;;;;5100346;28;20213;-76
2022/06/02 05:57:17;;;;;;;23.58;19.73;;;12.00;99.90;;;;;;5064865;28;20205;-76
2022/06/02 06:00:03;;;;;;;30.42;20.33;;;11.90;99.90;;;;;;5063630;28;20655;-77
2022/06/02 06:03:20;;;;;;;55.47;43.65;;;12.40;99.90;;;;;;5071082;28;20671;-76
2022/06/02 06:06:32;;;;;;;23.75;21.25;;;13.60;99.90;;;;;;5104189;28;20202;-77
2022/06/02 06:09:26;;;;;;;24.38;21.88;;;12.70;99.90;;;;;;5086388;28;20205;-78
2022/06/02 06:12:28;;;;;;;25.17;22.52;;;12.70;99.90;;;;;;5070202;28;20221;-78
2022/06/02 06:15:09;;;;;;;23.40;19.95;;;12.80;99.90;;;;;;5067787;28;20189;-78
2022/06/02 06:18:14;;;;;;;22.90;20.27;;;12.90;99.90;;;;;;5074715;28;20193;-78
2022/06/02 06:21:08;;;;;;;23.98;21.02;;;13.10;99.90;;;;;;5077062;28;20224;-78
2022/06/02 06:24:18;;;;;;;22.45;20.15;;;13.10;99.90;;;;;;5096079;28;20194;-77
2022/06/02 06:27:06;;;;;;;20.95;18.77;;;13.10;99.90;;;;;;5057716;28;20209;-78
2022/06/02 06:29:56;;;;;;;21.15;18.95;;;13.30;99.90;;;;;;5066089;28;20197;-78
2022/06/02 06:32:38;;;;;;;22.85;20.40;;;13.20;99.90;;;;;;5070641;28;20205;-78
2022/06/02 06:35:24;;;;;;;22.60;19.63;;;12.90;99.90;;;;;;5072835;28;20205;-78
2022/06/02 06:38:40;;;;;;;21.70;18.98;;;13.00;99.90;;;;;;5068785;28;20194;-77
2022/06/02 06:41:45;;;;;;;19.27;17.27;;;13.00;99.90;;;;;;5055815;28;20226;-79
2022/06/02 06:44:26;;;;;;;21.05;18.85;;;13.10;99.90;;;;;;5090537;28;20209;-79
2022/06/02 06:47:01;;;;;;;21.35;19.00;;;13.40;99.90;;;;;;5068183;28;20209;-77
2022/06/02 06:49:53;;;;;;;20.73;18.00;;;13.40;99.90;;;;;;5071530;28;20201;-77
2022/06/02 06:53:09;;;;;;;19.42;17.35;;;13.50;99.90;;;;;;5071121;28;20217;-77
2022/06/02 06:56:05;;;;;;;18.58;16.67;;;13.40;99.90;;;;;;5015197;28;20203;-77
2022/06/02 06:58:53;;;;;;;19.17;15.48;;;13.50;99.90;;;;;;5071807;28;20186;-77
2022/06/02 07:01:38;;;;;;;17.42;15.63;;;13.60;99.90;;;;;;5068491;28;20577;-77
2022/06/02 07:04:30;;;;;;;14.30;12.93;;;13.60;99.90;;;;;;5080469;28;20193;-77
2022/06/02 07:07:13;;;;;;;14.40;12.95;;;13.80;99.90;;;;;;5069446;28;20198;-77
2022/06/02 07:09:59;;;;;;;12.93;11.63;;;14.00;99.90;;;;;;5069981;28;20243;-77
2022/06/02 07:12:53;;;;;;;13.02;11.68;;;14.00;99.90;;;;;;5066834;28;20213;-77
2022/06/02 07:15:45;;;;;;;13.15;11.85;;;14.00;99.90;;;;;;5071283;28;20892;-77
2022/06/02 07:18:50;;;;;;;12.48;11.18;;;14.00;99.90;;;;;;5064242;28;20202;-77
2022/06/02 07:21:37;;;;;;;14.40;12.90;;;14.20;99.90;;;;;;5072005;28;20621;-77
2022/06/02 07:24:31;;;;;;;12.05;10.50;;;14.50;99.90;;;;;;5073870;28;20205;-77
2022/06/02 07:27:13;;;;;;;10.45;9.55;;;14.60;99.90;;;;;;5071623;28;20202;-77
2022/06/02 07:30:20;;;;;;;11.40;10.35;;;14.60;99.90;;;;;;5066323;28;20190;-77
2022/06/02 07:33:23;;;;;;;9.48;8.57;;;14.80;99.90;;;;;;5060282;28;20228;-77
2022/06/02 07:36:30;;;;;;;10.25;8.50;;;14.80;99.90;;;;;;5067309;28;20539;-77
2022/06/02 07:39:36;;;;;;;9.60;8.60;;;14.90;99.90;;;;;;5070545;28;20690;-77
2022/06/02 07:42:38;;;;;;;10.27;9.20;;;14.90;99.90;;;;;;5053316;28;20720;-77
2022/06/02 07:45:35;;;;;;;10.70;9.60;;;15.00;99.90;;;;;;5104282;28;20546;-77
2022/06/02 07:48:52;;;;;;;10.52;9.52;;;15.10;99.90;;;;;;5064269;28;20213;-77
2022/06/02 07:51:38;;;;;;;10.80;9.55;;;14.90;99.90;;;;;;5068251;28;20691;-77
2022/06/02 07:54:33;;;;;;;9.57;8.70;;;14.70;99.90;;;;;;5063428;28;20201;-77
2022/06/02 07:57:32;;;;;;;9.30;8.40;;;15.20;99.90;;;;;;5066168;28;20206;-77
2022/06/02 08:00:20;;;;;;;9.55;7.93;;;15.60;99.90;;;;;;5102871;28;20683;-77
2022/06/02 08:03:18;;;;;;;16.17;10.23;;;15.80;99.90;;;;;;5095851;28;20666;-77
2022/06/02 08:06:01;;;;;;;31.83;13.60;;;15.80;99.90;;;;;;5069463;28;20228;-76
2022/06/02 08:08:36;;;;;;;8.60;7.68;;;16.20;99.90;;;;;;5070295;28;20228;-77
2022/06/02 08:11:41;;;;;;;7.93;7.13;;;16.00;99.90;;;;;;5072258;28;20768;-77
2022/06/02 08:14:26;;;;;;;7.32;6.70;;;15.70;99.90;;;;;;5068811;28;20210;-77
2022/06/02 08:17:20;;;;;;;6.78;6.18;;;15.60;99.90;;;;;;5068976;28;20196;-79
2022/06/02 08:20:11;;;;;;;8.00;7.30;;;15.40;99.90;;;;;;5066555;28;20198;-77
2022/06/02 08:22:58;;;;;;;7.25;6.55;;;15.20;99.90;;;;;;5057129;28;20541;-80
2022/06/02 08:25:36;;;;;;;7.20;6.53;;;15.30;99.90;;;;;;5066378;28;20196;-78
2022/06/02 08:28:44;;;;;;;6.55;6.00;;;15.20;99.90;;;;;;5063907;28;20205;-79
2022/06/02 08:31:34;;;;;;;8.15;6.70;;;15.00;99.90;;;;;;5077722;28;20225;-79
2022/06/02 08:34:15;;;;;;;8.85;7.47;;;14.90;99.90;;;;;;5071623;28;20221;-79
2022/06/02 08:36:57;;;;;;;7.93;7.22;;;14.80;99.90;;;;;;5070897;28;20209;-78
2022/06/02 08:39:49;;;;;;;7.00;6.30;;;14.90;99.90;;;;;;5070212;28;20200;-79
2022/06/02 08:42:50;;;;;;;7.80;6.45;;;14.90;99.90;;;;;;5053997;28;20590;-78
2022/06/02 08:45:37;;;;;;;7.70;6.78;;;15.00;99.90;;;;;;5074381;28;20197;-80
2022/06/02 08:48:44;;;;;;;8.65;7.80;;;15.00;99.90;;;;;;5074646;28;20193;-80
2022/06/02 08:51:56;;;;;;;8.40;7.10;;;14.70;99.90;;;;;;5074929;28;20217;-80
2022/06/02 08:55:14;;;;;;;7.57;6.82;;;14.80;99.90;;;;;;5066026;28;20226;-80
2022/06/02 08:58:16;;;;;;;7.30;6.65;;;15.00;99.90;;;;;;5012835;28;20219;-80
2022/06/02 09:00:54;;;;;;;6.63;6.03;;;15.10;99.90;;;;;;4993204;28;20215;-80
2022/06/02 09:03:51;;;;;;;7.45;6.38;;;15.40;99.90;;;;;;5056378;28;20205;-80
2022/06/02 09:06:49;;;;;;;6.57;5.90;;;15.70;99.90;;;;;;5074482;28;20201;-79
2022/06/02 09:09:54;;;;;;;5.95;5.45;;;15.80;99.90;;;;;;5071237;28;20201;-80
2022/06/02 09:12:48;;;;;;;6.65;5.70;;;15.90;99.90;;;;;;5059148;28;20209;-80
2022/06/02 09:15:46;;;;;;;7.40;5.53;;;16.10;99.90;;;;;;5070785;28;20206;-80
2022/06/02 09:18:18;;;;;;;6.57;5.88;;;16.10;99.90;;;;;;5029688;28;20202;-80
2022/06/02 09:20:50;;;;;;;6.50;5.72;;;16.00;99.10;;;;;;5055589;28;20232;-80
2022/06/02 09:23:49;;;;;;;7.18;6.47;;;15.90;99.90;;;;;;5062282;28;20204;-80
2022/06/02 09:26:41;;;;;;;6.00;5.50;;;16.00;99.90;;;;;;5073982;28;20197;-80
2022/06/02 09:29:21;;;;;;;6.45;5.85;;;16.20;99.90;;;;;;5072663;28;20202;-80
2022/06/02 09:32:19;;;;;;;6.82;6.22;;;16.40;99.90;;;;;;5071836;28;20694;-80
2022/06/02 09:35:16;;;;;;;5.93;5.32;;;16.60;99.90;;;;;;5069114;28;20234;-80
2022/06/02 09:38:19;;;;;;;5.78;5.28;;;16.30;99.20;;;;;;5062448;28;20210;-80
2022/06/02 09:40:49;;;;;;;5.65;5.22;;;16.50;98.30;;;;;;5059884;28;20210;-81
2022/06/02 09:43:36;;;;;;;5.68;5.18;;;16.30;98.50;;;;;;5093896;28;20565;-81
2022/06/02 09:46:35;;;;;;;3.35;3.05;;;16.40;98.60;;;;;;5074152;28;20220;-81
2022/06/02 09:49:27;;;;;;;3.20;3.00;;;16.70;93.60;;;;;;5073550;28;20208;-80
2022/06/02 09:51:58;;;;;;;3.30;3.00;;;16.80;91.90;;;;;;5074125;28;20217;-80
2022/06/02 09:55:02;;;;;;;3.53;3.22;;;16.70;91.60;;;;;;5057854;28;20210;-81
2022/06/02 09:57:58;;;;;;;5.28;2.50;;;16.80;91.20;;;;;;5060967;28;20205;-81
2022/06/02 10:00:43;;;;;;;4.10;3.70;;;17.00;90.70;;;;;;5087126;28;20202;-81
2022/06/02 10:03:29;;;;;;;3.28;2.83;;;16.90;90.70;;;;;;5071803;28;20190;-81
2022/06/02 10:06:14;;;;;;;3.20;2.80;;;16.90;89.30;;;;;;5107873;28;20197;-81
2022/06/02 10:09:00;;;;;;;3.63;3.33;;;16.90;89.20;;;;;;5072842;28;20209;-81
2022/06/02 10:11:37;;;;;;;3.90;3.17;;;16.80;92.10;;;;;;5073204;28;20574;-81
2022/06/02 10:14:24;;;;;;;4.43;3.97;;;17.00;92.10;;;;;;5068875;28;20216;-80
2022/06/02 10:17:27;;;;;;;4.07;3.67;;;17.10;93.80;;;;;;5053917;28;20197;-81
2022/06/02 10:20:31;;;;;;;4.03;3.70;;;17.30;94.00;;;;;;5087212;28;20194;-81
2022/06/02 10:23:02;;;;;;;4.78;4.35;;;17.20;93.30;;;;;;5066634;28;20197;-81
2022/06/02 10:26:01;;;;;;;4.15;3.72;;;17.50;93.20;;;;;;5073181;28;20212;-81
2022/06/02 10:29:06;;;;;;;3.65;3.35;;;17.40;91.70;;;;;;5062208;28;20707;-81
2022/06/02 10:32:08;;;;;;;3.70;3.40;;;17.10;91.40;;;;;;5073080;28;20217;-81
2022/06/02 10:35:00;;;;;;;3.80;3.50;;;17.10;91.80;;;;;;5106886;28;20220;-81
2022/06/02 10:38:04;;;;;;;3.15;2.80;;;17.10;91.40;;;;;;5070073;28;20186;-81
2022/06/02 10:40:54;;;;;;;3.53;3.22;;;17.20;91.80;;;;;;5065564;28;20240;-81
2022/06/02 10:43:52;;;;;;;4.28;3.78;;;17.20;89.80;;;;;;5084562;28;20197;-81
2022/06/02 10:47:01;;;;;;;3.38;3.10;;;17.30;90.50;;;;;;5074500;28;20202;-81
2022/06/02 10:49:38;;;;;;;3.95;3.35;;;17.30;90.00;;;;;;5107447;28;20670;-81
2022/06/02 10:52:43;;;;;;;3.00;2.80;;;17.10;90.10;;;;;;5073479;28;20213;-80
2022/06/02 10:55:48;;;;;;;3.05;2.70;;;17.10;90.80;;;;;;5062087;28;20208;-81
2022/06/02 10:59:05;;;;;;;4.43;3.80;;;17.30;90.90;;;;;;5074150;28;20210;-81
2022/06/02 11:02:06;;;;;;;3.40;3.10;;;17.40;90.60;;;;;;5074636;28;20210;-81
2022/06/02 11:05:21;;;;;;;3.40;3.10;;;17.50;90.50;;;;;;5075178;28;20174;-80
2022/06/02 11:08:29;;;;;;;3.28;2.95;;;17.60;90.50;;;;;;5061645;28;20209;-80
2022/06/02 11:11:20;;;;;;;3.88;3.47;;;17.80;90.50;;;;;;5019027;28;20601;-81
2022/06/02 11:14:27;;;;;;;3.53;3.22;;;17.60;86.80;;;;;;5073806;28;20214;-81
2022/06/02 11:17:29;;;;;;;3.78;3.35;;;17.60;87.20;;;;;;5073598;28;20220;-81
2022/06/02 11:20:33;;;;;;;4.85;3.38;;;17.80;88.50;;;;;;5090352;28;20570;-81
2022/06/02 11:23:20;;;;;;;3.80;3.50;;;18.00;88.30;;;;;;5065862;28;20197;-81
2022/06/02 11:26:29;;;;;;;3.60;2.90;;;18.20;85.50;;;;;;5105250;28;20205;-81
2022/06/02 11:29:33;;;;;;;3.47;3.28;;;18.60;85.70;;;;;;5058394;28;20186;-81
2022/06/02 11:32:25;;;;;;;3.55;3.22;;;18.70;76.20;;;;;;5070370;28;20217;-80
2022/06/02 11:35:37;;;;;;;4.05;3.60;;;19.00;71.90;;;;;;5064576;28;20218;-81
2022/06/02 11:38:36;;;;;;;3.58;3.20;;;19.10;70.20;;;;;;5069653;28;20202;-78
2022/06/02 11:41:25;;;;;;;3.55;3.25;;;19.10;70.10;;;;;;5062923;28;20225;-80
2022/06/02 11:44:03;;;;;;;3.03;2.72;;;19.20;71.60;;;;;;5069988;28;20193;-79
2022/06/02 11:47:12;;;;;;;3.47;3.20;;;19.40;74.00;;;;;;5072704;28;20671;-80
2022/06/02 11:50:24;;;;;;;3.50;3.17;;;19.70;71.10;;;;;;5076738;28;20205;-80
2022/06/02 11:53:23;;;;;;;3.78;3.40;;;19.70;71.10;;;;;;5036541;28;20301;-79
2022/06/02 11:55:55;;;;;;;3.40;3.10;;;19.40;71.20;;;;;;5037476;28;20746;-80
2022/06/02 11:58:55;;;;;;;3.53;3.30;;;19.60;73.20;;;;;;5052416;28;20534;-80
2022/06/02 12:01:51;;;;;;;3.38;3.08;;;19.90;71.10;;;;;;5072919;28;20225;-80
2022/06/02 12:04:51;;;;;;;4.80;4.35;;;20.20;64.80;;;;;;5063056;28;20206;-80
2022/06/02 12:08:01;;;;;;;3.60;3.30;;;20.00;63.40;;;;;;5070481;28;20204;-80
2022/06/02 12:10:52;;;;;;;3.78;2.45;;;19.90;66.10;;;;;;5074244;28;20213;-79
2022/06/02 12:13:44;;;;;;;2.83;2.40;;;19.90;67.60;;;;;;5070905;28;20194;-80
2022/06/02 12:16:41;;;;;;;3.53;2.72;;;19.70;67.60;;;;;;5073544;28;20213;-80
2022/06/02 12:19:27;;;;;;;2.72;2.47;;;19.60;65.80;;;;;;5073628;28;20558;-77
2022/06/02 12:22:11;;;;;;;2.38;2.08;;;19.60;68.00;;;;;;5070403;28;20214;-80
2022/06/02 12:25:01;;;;;;;2.25;2.10;;;19.50;65.80;;;;;;5071452;28;20202;-79
2022/06/02 12:28:10;;;;;;;3.45;2.47;;;19.70;66.50;;;;;;5066131;28;20202;-80
2022/06/02 12:30:53;;;;;;;3.55;3.25;;;19.60;65.30;;;;;;5067224;28;20218;-79
2022/06/02 12:33:53;;;;;;;3.28;2.95;;;19.50;63.20;;;;;;5070013;28;20197;-80
2022/06/02 12:37:04;;;;;;;2.50;2.30;;;19.80;61.10;;;;;;5079478;28;20249;-81
2022/06/02 12:40:02;;;;;;;2.53;2.10;;;20.00;63.20;;;;;;4998826;28;20203;-79
2022/06/02 12:43:07;;;;;;;4.05;2.78;;;20.30;61.70;;;;;;5074845;28;20213;-78
2022/06/02 12:45:52;;;;;;;5.03;2.45;;;20.30;59.80;;;;;;5104504;28;20186;-77
2022/06/02 12:49:10;;;;;;;3.35;3.05;;;20.70;64.20;;;;;;5072487;28;20205;-78
2022/06/02 12:51:59;;;;;;;3.72;2.85;;;20.30;55.80;;;;;;5048895;28;20582;-78
2022/06/02 12:55:06;;;;;;;2.70;2.50;;;20.20;57.70;;;;;;5066177;28;20194;-78
2022/06/02 12:58:13;;;;;;;2.88;2.05;;;20.80;56.80;;;;;;5064869;28;20178;-78
2022/06/02 13:01:17;;;;;;;2.28;2.08;;;21.20;57.10;;;;;;5057919;28;20679;-78
2022/06/02 13:04:19;;;;;;;2.40;2.20;;;21.60;53.70;;;;;;5079300;28;20228;-78
2022/06/02 13:07:27;;;;;;;5.05;2.35;;;21.20;58.30;;;;;;5066881;28;20682;-78
2022/06/02 13:10:24;;;;;;;3.08;2.63;;;21.20;58.20;;;;;;5061929;28;20610;-78
2022/06/02 13:13:26;;;;;;;2.80;2.60;;;20.70;56.90;;;;;;5069639;28;20198;-78
2022/06/02 13:16:26;;;;;;;2.58;2.38;;;21.10;58.50;;;;;;5062746;28;20205;-78
2022/06/02 13:19:28;;;;;;;2.10;1.80;;;21.00;59.10;;;;;;5066443;28;20570;-78
2022/06/02 13:22:23;;;;;;;2.00;1.90;;;20.90;61.10;;;;;;5047013;28;20225;-78
2022/06/02 13:25:11;;;;;;;1.67;1.58;;;21.50;59.00;;;;;;5065902;28;20198;-78
2022/06/02 13:28:29;;;;;;;1.60;1.50;;;22.10;57.00;;;;;;5101417;28;20193;-78
2022/06/02 13:31:47;;;;;;;2.22;1.70;;;22.40;57.00;;;;;;5096169;28;20227;-78
2022/06/02 13:34:57;;;;;;;2.17;2.05;;;21.90;55.90;;;;;;5059415;28;20206;-78
2022/06/02 13:37:48;;;;;;;2.33;2.13;;;22.10;54.50;;;;;;5071707;28;20190;-78
2022/06/02 13:40:25;;;;;;;2.58;2.38;;;22.10;53.20;;;;;;5070832;28;20204;-78
2022/06/02 13:43:34;;;;;;;2.80;2.10;;;21.50;50.20;;;;;;5063731;28;20651;-78
2022/06/02 13:46:44;;;;;;;2.10;1.90;;;21.80;51.80;;;;;;5071155;28;20554;-78
2022/06/02 13:53:36;;;;;;;1.95;1.65;;;22.20;52.30;;;;;;5074618;28;20504;-78
2022/06/02 13:59:31;;;;;;;2.78;2.38;;;22.70;54.60;;;;;;5075422;28;20198;-78
2022/06/02 14:02:32;;;;;;;2.83;2.38;;;22.20;53.00;;;;;;5078377;28;20232;-77
2022/06/02 14:05:18;;;;;;;2.47;2.25;;;22.20;50.10;;;;;;5066586;28;20216;-77
2022/06/02 14:08:17;;;;;;;2.45;2.17;;;22.00;52.50;;;;;;5068968;28;20677;-78
2022/06/02 14:10:54;;;;;;;3.28;2.97;;;22.60;53.20;;;;;;5053793;28;21062;-78
2022/06/02 14:14:04;;;;;;;3.40;3.15;;;22.60;51.60;;;;;;5068148;28;20202;-78
2022/06/02 14:16:43;;;;;;;3.40;2.67;;;22.30;51.90;;;;;;4981205;28;20219;-77
2022/06/02 14:19:38;;;;;;;3.50;3.20;;;21.80;54.20;;;;;;5055305;28;20197;-78
2022/06/02 14:22:41;;;;;;;3.33;2.97;;;22.40;54.80;;;;;;5062458;28;20222;-78
2022/06/02 14:25:17;;;;;;;3.58;2.67;;;22.20;54.30;;;;;;5101079;28;20204;-78
2022/06/02 14:27:55;;;;;;;2.78;2.58;;;22.60;53.30;;;;;;5070983;28;20201;-77
2022/06/02 14:30:32;;;;;;;4.70;4.30;;;22.80;52.50;;;;;;5067755;28;20212;-78
2022/06/02 14:33:07;;;;;;;4.10;3.80;;;22.90;50.40;;;;;;5065722;28;20201;-78
2022/06/02 14:35:46;;;;;;;3.53;3.22;;;23.50;50.40;;;;;;5063722;28;20209;-78
2022/06/02 14:38:50;;;;;;;4.38;4.07;;;23.60;52.20;;;;;;5067738;28;20202;-79
2022/06/02 14:41:25;;;;;;;5.35;4.95;;;23.40;52.60;;;;;;5065516;28;20252;-78
2022/06/02 14:44:13;;;;;;;5.38;4.93;;;22.70;51.90;;;;;;5069615;28;20197;-79
2022/06/02 14:47:16;;;;;;;6.75;6.25;;;23.10;52.60;;;;;;5066387;28;20198;-79
2022/06/02 14:50:17;;;;;;;6.53;5.93;;;23.20;50.70;;;;;;5047787;28;20193;-79
2022/06/02 14:53:11;;;;;;;6.78;6.38;;;23.00;49.40;;;;;;5070153;28;20196;-79